sensor_id;sensor_type;location;lat;lon;timestamp;P1;durP1;ratioP1;P2;durP2;ratioP2
38023;SDS011;23834;48.080;11.682;2023-03-23T00:02:00;3.80;;;2.70;;
38023;SDS011;23834;48.080;11.682;2023-03-23T00:04:25;3.40;;;3.10;;
38023;SDS011;23834;48.080;11.682;2023-03-23T00:06:51;2.90;;;2.70;;
38023;SDS011;23834;48.080;11.682;2023-03-23T00:09:17;3.10;;;2.80;;
38023;SDS011;23834;48.080;11.682;2023-03-23T00:11:48;4.63;;;2.60;;
38023;SDS011;23834;48.080;11.682;2023-03-23T00:14:13;2.63;;;2.43;;
38023;SDS011;23834;48.080;11.682;2023-03-23T00:16:41;2.60;;;2.40;;
38023;SDS011;23834;48.080;11.682;2023-03-23T00:19:09;3.07;;;2.30;;
38023;SDS011;23834;48.080;11.682;2023-03-23T00:21:35;2.70;;;2.50;;
38023;SDS011;23834;48.080;11.682;2023-03-23T00:26:31;2.90;;;2.70;;
38023;SDS011;23834;48.080;11.682;2023-03-23T00:28:58;2.50;;;2.30;;
38023;SDS011;23834;48.080;11.682;2023-03-23T00:31:25;2.20;;;2.10;;
38023;SDS011;23834;48.080;11.682;2023-03-23T00:33:56;2.93;;;2.43;;
38023;SDS011;23834;48.080;11.682;2023-03-23T00:36:21;2.67;;;2.47;;
38023;SDS011;23834;48.080;11.682;2023-03-23T00:38:48;2.27;;;2.17;;
38023;SDS011;23834;48.080;11.682;2023-03-23T00:41:13;2.80;;;2.27;;
38023;SDS011;23834;48.080;11.682;2023-03-23T00:43:40;2.40;;;2.20;;
38023;SDS011;23834;48.080;11.682;2023-03-23T00:46:05;2.50;;;2.23;;
38023;SDS011;23834;48.080;11.682;2023-03-23T00:48:34;2.70;;;2.50;;
38023;SDS011;23834;48.080;11.682;2023-03-23T00:51:00;2.50;;;2.30;;
38023;SDS011;23834;48.080;11.682;2023-03-23T00:53:26;2.33;;;2.13;;
38023;SDS011;23834;48.080;11.682;2023-03-23T00:55:51;2.50;;;2.30;;
38023;SDS011;23834;48.080;11.682;2023-03-23T00:58:16;2.17;;;1.97;;
38023;SDS011;23834;48.080;11.682;2023-03-23T01:00:42;2.50;;;2.30;;
38023;SDS011;23834;48.080;11.682;2023-03-23T01:03:08;2.93;;;2.57;;
38023;SDS011;23834;48.080;11.682;2023-03-23T01:05:36;2.63;;;2.43;;
38023;SDS011;23834;48.080;11.682;2023-03-23T01:08:03;2.80;;;2.37;;
38023;SDS011;23834;48.080;11.682;2023-03-23T01:10:28;2.70;;;2.50;;
38023;SDS011;23834;48.080;11.682;2023-03-23T01:12:54;2.60;;;2.20;;
38023;SDS011;23834;48.080;11.682;2023-03-23T01:15:19;2.60;;;2.40;;
38023;SDS011;23834;48.080;11.682;2023-03-23T01:17:45;3.20;;;2.43;;
38023;SDS011;23834;48.080;11.682;2023-03-23T01:20:11;2.70;;;2.20;;
38023;SDS011;23834;48.080;11.682;2023-03-23T01:22:37;2.47;;;2.27;;
38023;SDS011;23834;48.080;11.682;2023-03-23T01:25:03;2.80;;;2.60;;
38023;SDS011;23834;48.080;11.682;2023-03-23T01:27:28;2.47;;;2.27;;
38023;SDS011;23834;48.080;11.682;2023-03-23T01:29:53;2.50;;;2.30;;
38023;SDS011;23834;48.080;11.682;2023-03-23T01:32:19;2.93;;;2.67;;
38023;SDS011;23834;48.080;11.682;2023-03-23T01:34:44;2.57;;;2.37;;
38023;SDS011;23834;48.080;11.682;2023-03-23T01:37:09;2.43;;;2.23;;
38023;SDS011;23834;48.080;11.682;2023-03-23T01:39:38;2.60;;;2.30;;
38023;SDS011;23834;48.080;11.682;2023-03-23T01:42:03;2.27;;;2.07;;
38023;SDS011;23834;48.080;11.682;2023-03-23T01:46:56;2.67;;;2.47;;
38023;SDS011;23834;48.080;11.682;2023-03-23T01:49:23;3.00;;;2.20;;
38023;SDS011;23834;48.080;11.682;2023-03-23T01:51:51;2.70;;;2.50;;
38023;SDS011;23834;48.080;11.682;2023-03-23T01:54:18;2.37;;;2.17;;
38023;SDS011;23834;48.080;11.682;2023-03-23T01:56:55;2.50;;;2.10;;
38023;SDS011;23834;48.080;11.682;2023-03-23T01:59:23;2.17;;;1.93;;
38023;SDS011;23834;48.080;11.682;2023-03-23T02:01:50;2.50;;;2.30;;
38023;SDS011;23834;48.080;11.682;2023-03-23T02:04:17;2.70;;;2.50;;
38023;SDS011;23834;48.080;11.682;2023-03-23T02:06:42;2.40;;;2.13;;
38023;SDS011;23834;48.080;11.682;2023-03-23T02:09:09;2.60;;;2.10;;
38023;SDS011;23834;48.080;11.682;2023-03-23T02:11:35;2.77;;;2.57;;
38023;SDS011;23834;48.080;11.682;2023-03-23T02:14:00;2.50;;;2.30;;
38023;SDS011;23834;48.080;11.682;2023-03-23T02:16:45;2.63;;;2.37;;
38023;SDS011;23834;48.080;11.682;2023-03-23T02:22:02;2.10;;;2.00;;
38023;SDS011;23834;48.080;11.682;2023-03-23T02:24:37;2.40;;;2.20;;
38023;SDS011;23834;48.080;11.682;2023-03-23T02:27:13;2.87;;;2.57;;
38023;SDS011;23834;48.080;11.682;2023-03-23T02:29:46;2.73;;;2.13;;
38023;SDS011;23834;48.080;11.682;2023-03-23T02:32:26;2.40;;;1.90;;
38023;SDS011;23834;48.080;11.682;2023-03-23T02:34:56;2.10;;;1.90;;
38023;SDS011;23834;48.080;11.682;2023-03-23T02:37:24;2.10;;;2.00;;
38023;SDS011;23834;48.080;11.682;2023-03-23T02:39:53;3.17;;;2.10;;
38023;SDS011;23834;48.080;11.682;2023-03-23T02:42:26;2.10;;;2.00;;
38023;SDS011;23834;48.080;11.682;2023-03-23T02:44:53;2.03;;;1.93;;
38023;SDS011;23834;48.080;11.682;2023-03-23T02:47:23;2.17;;;1.97;;
38023;SDS011;23834;48.080;11.682;2023-03-23T02:49:50;2.17;;;1.97;;
38023;SDS011;23834;48.080;11.682;2023-03-23T02:52:18;2.17;;;1.97;;
38023;SDS011;23834;48.080;11.682;2023-03-23T02:54:44;2.67;;;2.47;;
38023;SDS011;23834;48.080;11.682;2023-03-23T02:57:11;2.20;;;1.93;;
38023;SDS011;23834;48.080;11.682;2023-03-23T02:59:36;1.83;;;1.73;;
38023;SDS011;23834;48.080;11.682;2023-03-23T03:02:04;2.47;;;2.27;;
38023;SDS011;23834;48.080;11.682;2023-03-23T03:04:30;2.50;;;2.30;;
38023;SDS011;23834;48.080;11.682;2023-03-23T03:07:01;2.37;;;2.20;;
38023;SDS011;23834;48.080;11.682;2023-03-23T03:11:55;2.30;;;1.90;;
38023;SDS011;23834;48.080;11.682;2023-03-23T03:14:23;1.73;;;1.63;;
38023;SDS011;23834;48.080;11.682;2023-03-23T03:16:52;1.93;;;1.83;;
38023;SDS011;23834;48.080;11.682;2023-03-23T03:19:22;1.87;;;1.77;;
38023;SDS011;23834;48.080;11.682;2023-03-23T03:21:50;2.27;;;2.07;;
38023;SDS011;23834;48.080;11.682;2023-03-23T03:24:18;2.00;;;1.80;;
38023;SDS011;23834;48.080;11.682;2023-03-23T03:26:47;2.10;;;2.00;;
38023;SDS011;23834;48.080;11.682;2023-03-23T03:29:14;3.33;;;1.97;;
38023;SDS011;23834;48.080;11.682;2023-03-23T03:31:42;1.70;;;1.60;;
38023;SDS011;23834;48.080;11.682;2023-03-23T03:34:10;2.37;;;2.10;;
38023;SDS011;23834;48.080;11.682;2023-03-23T03:36:36;1.90;;;1.80;;
38023;SDS011;23834;48.080;11.682;2023-03-23T03:39:06;1.87;;;1.77;;
38023;SDS011;23834;48.080;11.682;2023-03-23T03:41:33;2.87;;;2.30;;
38023;SDS011;23834;48.080;11.682;2023-03-23T03:43:58;2.47;;;2.27;;
38023;SDS011;23834;48.080;11.682;2023-03-23T03:46:23;1.93;;;1.73;;
38023;SDS011;23834;48.080;11.682;2023-03-23T03:48:51;1.87;;;1.70;;
38023;SDS011;23834;48.080;11.682;2023-03-23T03:51:17;2.43;;;2.10;;
38023;SDS011;23834;48.080;11.682;2023-03-23T03:53:42;1.87;;;1.77;;
38023;SDS011;23834;48.080;11.682;2023-03-23T03:56:07;2.10;;;2.00;;
38023;SDS011;23834;48.080;11.682;2023-03-23T03:58:32;2.00;;;1.90;;
38023;SDS011;23834;48.080;11.682;2023-03-23T04:01:01;1.80;;;1.70;;
38023;SDS011;23834;48.080;11.682;2023-03-23T04:03:26;2.23;;;2.03;;
38023;SDS011;23834;48.080;11.682;2023-03-23T04:05:52;1.80;;;1.70;;
38023;SDS011;23834;48.080;11.682;2023-03-23T04:08:17;2.10;;;2.00;;
38023;SDS011;23834;48.080;11.682;2023-03-23T04:10:43;2.10;;;1.90;;
38023;SDS011;23834;48.080;11.682;2023-03-23T04:13:09;1.93;;;1.73;;
38023;SDS011;23834;48.080;11.682;2023-03-23T04:15:34;1.47;;;1.37;;
38023;SDS011;23834;48.080;11.682;2023-03-23T04:17:59;1.90;;;1.80;;
38023;SDS011;23834;48.080;11.682;2023-03-23T04:20:24;1.70;;;1.60;;
38023;SDS011;23834;48.080;11.682;2023-03-23T04:22:51;2.03;;;1.93;;
38023;SDS011;23834;48.080;11.682;2023-03-23T04:25:17;1.97;;;1.80;;
38023;SDS011;23834;48.080;11.682;2023-03-23T04:27:45;1.83;;;1.73;;
38023;SDS011;23834;48.080;11.682;2023-03-23T04:30:11;2.40;;;1.90;;
38023;SDS011;23834;48.080;11.682;2023-03-23T04:32:38;1.77;;;1.47;;
38023;SDS011;23834;48.080;11.682;2023-03-23T04:35:05;2.17;;;1.80;;
38023;SDS011;23834;48.080;11.682;2023-03-23T04:37:31;2.20;;;1.77;;
38023;SDS011;23834;48.080;11.682;2023-03-23T04:39:58;1.90;;;1.80;;
38023;SDS011;23834;48.080;11.682;2023-03-23T04:42:30;1.70;;;1.60;;
38023;SDS011;23834;48.080;11.682;2023-03-23T04:44:56;1.77;;;1.50;;
38023;SDS011;23834;48.080;11.682;2023-03-23T04:47:22;1.70;;;1.40;;
38023;SDS011;23834;48.080;11.682;2023-03-23T04:49:47;2.07;;;1.60;;
38023;SDS011;23834;48.080;11.682;2023-03-23T04:52:13;1.60;;;1.17;;
38023;SDS011;23834;48.080;11.682;2023-03-23T04:54:38;1.70;;;1.60;;
38023;SDS011;23834;48.080;11.682;2023-03-23T04:57:04;1.70;;;1.60;;
38023;SDS011;23834;48.080;11.682;2023-03-23T04:59:29;1.53;;;1.47;;
38023;SDS011;23834;48.080;11.682;2023-03-23T05:01:57;1.47;;;1.37;;
38023;SDS011;23834;48.080;11.682;2023-03-23T05:04:23;1.83;;;1.73;;
38023;SDS011;23834;48.080;11.682;2023-03-23T05:06:50;2.70;;;1.87;;
38023;SDS011;23834;48.080;11.682;2023-03-23T05:09:16;1.80;;;1.70;;
38023;SDS011;23834;48.080;11.682;2023-03-23T05:11:41;3.20;;;1.73;;
38023;SDS011;23834;48.080;11.682;2023-03-23T05:14:06;1.50;;;1.40;;
38023;SDS011;23834;48.080;11.682;2023-03-23T05:16:31;1.70;;;1.60;;
38023;SDS011;23834;48.080;11.682;2023-03-23T05:18:57;1.80;;;1.70;;
38023;SDS011;23834;48.080;11.682;2023-03-23T05:21:23;1.77;;;1.67;;
38023;SDS011;23834;48.080;11.682;2023-03-23T05:23:48;1.73;;;1.63;;
38023;SDS011;23834;48.080;11.682;2023-03-23T05:26:22;2.03;;;1.87;;
38023;SDS011;23834;48.080;11.682;2023-03-23T05:28:53;1.70;;;1.60;;
38023;SDS011;23834;48.080;11.682;2023-03-23T05:31:19;1.67;;;1.37;;
38023;SDS011;23834;48.080;11.682;2023-03-23T05:33:44;1.97;;;1.87;;
38023;SDS011;23834;48.080;11.682;2023-03-23T05:36:10;2.07;;;1.97;;
38023;SDS011;23834;48.080;11.682;2023-03-23T05:38:38;2.70;;;1.67;;
38023;SDS011;23834;48.080;11.682;2023-03-23T05:41:03;2.20;;;2.10;;
38023;SDS011;23834;48.080;11.682;2023-03-23T05:43:29;1.67;;;1.57;;
38023;SDS011;23834;48.080;11.682;2023-03-23T05:45:54;1.93;;;1.70;;
38023;SDS011;23834;48.080;11.682;2023-03-23T05:48:19;2.07;;;1.90;;
38023;SDS011;23834;48.080;11.682;2023-03-23T05:50:45;2.83;;;2.10;;
38023;SDS011;23834;48.080;11.682;2023-03-23T05:53:10;2.10;;;1.90;;
38023;SDS011;23834;48.080;11.682;2023-03-23T05:55:35;1.87;;;1.77;;
38023;SDS011;23834;48.080;11.682;2023-03-23T05:58:00;3.07;;;2.20;;
38023;SDS011;23834;48.080;11.682;2023-03-23T06:00:26;2.13;;;1.93;;
38023;SDS011;23834;48.080;11.682;2023-03-23T06:02:57;2.77;;;2.50;;
38023;SDS011;23834;48.080;11.682;2023-03-23T06:05:22;2.17;;;1.77;;
38023;SDS011;23834;48.080;11.682;2023-03-23T06:07:48;2.50;;;2.30;;
38023;SDS011;23834;48.080;11.682;2023-03-23T06:10:14;2.43;;;1.67;;
38023;SDS011;23834;48.080;11.682;2023-03-23T06:12:39;1.90;;;1.70;;
38023;SDS011;23834;48.080;11.682;2023-03-23T06:15:05;1.90;;;1.80;;
38023;SDS011;23834;48.080;11.682;2023-03-23T06:17:34;2.00;;;1.90;;
38023;SDS011;23834;48.080;11.682;2023-03-23T06:19:59;1.73;;;1.63;;
38023;SDS011;23834;48.080;11.682;2023-03-23T06:22:25;1.70;;;1.60;;
38023;SDS011;23834;48.080;11.682;2023-03-23T06:24:51;2.03;;;1.90;;
38023;SDS011;23834;48.080;11.682;2023-03-23T06:27:17;2.33;;;2.23;;
38023;SDS011;23834;48.080;11.682;2023-03-23T06:29:42;2.67;;;2.20;;
38023;SDS011;23834;48.080;11.682;2023-03-23T06:32:09;2.23;;;2.03;;
38023;SDS011;23834;48.080;11.682;2023-03-23T06:34:35;2.10;;;2.00;;
38023;SDS011;23834;48.080;11.682;2023-03-23T06:37:01;2.00;;;1.90;;
38023;SDS011;23834;48.080;11.682;2023-03-23T06:39:26;2.00;;;1.80;;
38023;SDS011;23834;48.080;11.682;2023-03-23T06:41:52;1.83;;;1.73;;
38023;SDS011;23834;48.080;11.682;2023-03-23T06:44:17;2.93;;;1.93;;
38023;SDS011;23834;48.080;11.682;2023-03-23T06:46:43;1.90;;;1.80;;
38023;SDS011;23834;48.080;11.682;2023-03-23T06:49:08;1.70;;;1.60;;
38023;SDS011;23834;48.080;11.682;2023-03-23T06:51:33;1.67;;;1.57;;
38023;SDS011;23834;48.080;11.682;2023-03-23T06:53:59;2.13;;;1.83;;
38023;SDS011;23834;48.080;11.682;2023-03-23T06:56:24;2.60;;;2.00;;
38023;SDS011;23834;48.080;11.682;2023-03-23T06:58:50;2.00;;;1.73;;
38023;SDS011;23834;48.080;11.682;2023-03-23T07:01:17;2.20;;;2.00;;
38023;SDS011;23834;48.080;11.682;2023-03-23T07:03:42;4.17;;;2.03;;
38023;SDS011;23834;48.080;11.682;2023-03-23T07:06:07;3.17;;;1.70;;
38023;SDS011;23834;48.080;11.682;2023-03-23T07:08:33;2.07;;;1.73;;
38023;SDS011;23834;48.080;11.682;2023-03-23T07:10:58;2.43;;;2.23;;
38023;SDS011;23834;48.080;11.682;2023-03-23T07:13:24;1.93;;;1.83;;
38023;SDS011;23834;48.080;11.682;2023-03-23T07:15:50;2.67;;;1.80;;
38023;SDS011;23834;48.080;11.682;2023-03-23T07:18:16;2.40;;;1.80;;
38023;SDS011;23834;48.080;11.682;2023-03-23T07:20:41;2.20;;;2.00;;
38023;SDS011;23834;48.080;11.682;2023-03-23T07:23:07;2.47;;;1.97;;
38023;SDS011;23834;48.080;11.682;2023-03-23T07:25:32;2.20;;;2.00;;
38023;SDS011;23834;48.080;11.682;2023-03-23T07:27:58;2.40;;;1.80;;
38023;SDS011;23834;48.080;11.682;2023-03-23T07:30:24;2.13;;;1.90;;
38023;SDS011;23834;48.080;11.682;2023-03-23T07:32:50;2.17;;;1.97;;
38023;SDS011;23834;48.080;11.682;2023-03-23T07:35:15;2.40;;;2.10;;
38023;SDS011;23834;48.080;11.682;2023-03-23T07:37:41;3.00;;;1.80;;
38023;SDS011;23834;48.080;11.682;2023-03-23T07:40:06;2.10;;;1.90;;
38023;SDS011;23834;48.080;11.682;2023-03-23T07:42:41;2.37;;;1.80;;
38023;SDS011;23834;48.080;11.682;2023-03-23T07:45:07;1.47;;;1.37;;
38023;SDS011;23834;48.080;11.682;2023-03-23T07:47:32;2.00;;;1.90;;
38023;SDS011;23834;48.080;11.682;2023-03-23T07:49:57;1.73;;;1.63;;
38023;SDS011;23834;48.080;11.682;2023-03-23T07:52:23;2.30;;;2.10;;
38023;SDS011;23834;48.080;11.682;2023-03-23T07:54:48;2.10;;;1.97;;
38023;SDS011;23834;48.080;11.682;2023-03-23T07:57:14;1.70;;;1.60;;
38023;SDS011;23834;48.080;11.682;2023-03-23T07:59:39;3.43;;;1.90;;
38023;SDS011;23834;48.080;11.682;2023-03-23T08:02:05;3.10;;;1.90;;
38023;SDS011;23834;48.080;11.682;2023-03-23T08:04:32;1.77;;;1.67;;
38023;SDS011;23834;48.080;11.682;2023-03-23T08:07:01;2.10;;;1.90;;
38023;SDS011;23834;48.080;11.682;2023-03-23T08:09:27;2.10;;;1.77;;
38023;SDS011;23834;48.080;11.682;2023-03-23T08:11:52;2.00;;;1.90;;
38023;SDS011;23834;48.080;11.682;2023-03-23T08:14:17;1.80;;;1.37;;
38023;SDS011;23834;48.080;11.682;2023-03-23T08:16:43;2.00;;;1.80;;
38023;SDS011;23834;48.080;11.682;2023-03-23T08:19:08;1.90;;;1.70;;
38023;SDS011;23834;48.080;11.682;2023-03-23T08:21:33;1.70;;;1.60;;
38023;SDS011;23834;48.080;11.682;2023-03-23T08:24:00;1.70;;;1.60;;
38023;SDS011;23834;48.080;11.682;2023-03-23T08:26:25;2.07;;;1.87;;
38023;SDS011;23834;48.080;11.682;2023-03-23T08:28:51;2.07;;;1.87;;
38023;SDS011;23834;48.080;11.682;2023-03-23T08:31:16;1.93;;;1.70;;
38023;SDS011;23834;48.080;11.682;2023-03-23T08:33:42;2.00;;;1.80;;
38023;SDS011;23834;48.080;11.682;2023-03-23T08:36:07;2.20;;;1.90;;
38023;SDS011;23834;48.080;11.682;2023-03-23T08:38:34;1.80;;;1.70;;
38023;SDS011;23834;48.080;11.682;2023-03-23T08:41:00;3.20;;;1.93;;
38023;SDS011;23834;48.080;11.682;2023-03-23T08:43:26;2.40;;;1.60;;
38023;SDS011;23834;48.080;11.682;2023-03-23T08:45:52;2.27;;;1.70;;
38023;SDS011;23834;48.080;11.682;2023-03-23T08:48:17;2.33;;;2.10;;
38023;SDS011;23834;48.080;11.682;2023-03-23T08:50:43;1.97;;;1.50;;
38023;SDS011;23834;48.080;11.682;2023-03-23T08:53:08;3.67;;;2.10;;
38023;SDS011;23834;48.080;11.682;2023-03-23T08:55:34;2.07;;;1.40;;
38023;SDS011;23834;48.080;11.682;2023-03-23T08:57:59;1.93;;;1.50;;
38023;SDS011;23834;48.080;11.682;2023-03-23T09:00:24;2.00;;;1.73;;
38023;SDS011;23834;48.080;11.682;2023-03-23T09:02:51;1.67;;;1.57;;
38023;SDS011;23834;48.080;11.682;2023-03-23T09:05:18;3.30;;;1.80;;
38023;SDS011;23834;48.080;11.682;2023-03-23T09:07:46;2.30;;;1.60;;
38023;SDS011;23834;48.080;11.682;2023-03-23T09:10:12;1.70;;;1.60;;
38023;SDS011;23834;48.080;11.682;2023-03-23T09:12:38;2.43;;;1.60;;
38023;SDS011;23834;48.080;11.682;2023-03-23T09:15:04;3.60;;;1.80;;
38023;SDS011;23834;48.080;11.682;2023-03-23T09:17:37;2.53;;;1.93;;
38023;SDS011;23834;48.080;11.682;2023-03-23T09:20:04;1.70;;;1.50;;
38023;SDS011;23834;48.080;11.682;2023-03-23T09:22:36;1.90;;;1.80;;
38023;SDS011;23834;48.080;11.682;2023-03-23T09:25:03;3.50;;;1.90;;
38023;SDS011;23834;48.080;11.682;2023-03-23T09:27:28;1.97;;;1.87;;
38023;SDS011;23834;48.080;11.682;2023-03-23T09:29:54;2.77;;;2.00;;
38023;SDS011;23834;48.080;11.682;2023-03-23T09:32:20;3.87;;;1.67;;
38023;SDS011;23834;48.080;11.682;2023-03-23T09:34:47;1.70;;;1.60;;
38023;SDS011;23834;48.080;11.682;2023-03-23T09:37:12;1.70;;;1.60;;
38023;SDS011;23834;48.080;11.682;2023-03-23T09:39:39;1.47;;;1.37;;
38023;SDS011;23834;48.080;11.682;2023-03-23T09:42:48;1.90;;;1.63;;
38023;SDS011;23834;48.080;11.682;2023-03-23T09:44:57;2.00;;;1.67;;
38023;SDS011;23834;48.080;11.682;2023-03-23T09:47:30;1.80;;;1.70;;
38023;SDS011;23834;48.080;11.682;2023-03-23T09:50:08;3.93;;;1.77;;
38023;SDS011;23834;48.080;11.682;2023-03-23T09:52:40;2.30;;;2.10;;
38023;SDS011;23834;48.080;11.682;2023-03-23T09:55:09;2.20;;;2.00;;
38023;SDS011;23834;48.080;11.682;2023-03-23T09:57:39;4.23;;;1.63;;
38023;SDS011;23834;48.080;11.682;2023-03-23T10:00:10;1.70;;;1.60;;
38023;SDS011;23834;48.080;11.682;2023-03-23T10:02:39;2.40;;;1.60;;
38023;SDS011;23834;48.080;11.682;2023-03-23T10:05:23;1.53;;;1.43;;
38023;SDS011;23834;48.080;11.682;2023-03-23T10:07:50;1.57;;;1.47;;
38023;SDS011;23834;48.080;11.682;2023-03-23T10:10:15;1.50;;;1.40;;
38023;SDS011;23834;48.080;11.682;2023-03-23T10:12:45;1.60;;;1.50;;
38023;SDS011;23834;48.080;11.682;2023-03-23T10:15:17;4.10;;;1.70;;
38023;SDS011;23834;48.080;11.682;2023-03-23T10:18:25;2.00;;;1.80;;
38023;SDS011;23834;48.080;11.682;2023-03-23T10:23:09;1.60;;;1.50;;
38023;SDS011;23834;48.080;11.682;2023-03-23T10:25:36;2.60;;;1.80;;
38023;SDS011;23834;48.080;11.682;2023-03-23T10:28:12;2.20;;;1.60;;
38023;SDS011;23834;48.080;11.682;2023-03-23T10:30:55;1.70;;;1.60;;
38023;SDS011;23834;48.080;11.682;2023-03-23T10:33:33;1.67;;;1.53;;
38023;SDS011;23834;48.080;11.682;2023-03-23T10:36:07;2.10;;;1.90;;
38023;SDS011;23834;48.080;11.682;2023-03-23T10:38:42;2.30;;;1.63;;
38023;SDS011;23834;48.080;11.682;2023-03-23T10:41:15;2.03;;;1.83;;
38023;SDS011;23834;48.080;11.682;2023-03-23T10:43:41;2.50;;;1.47;;
38023;SDS011;23834;48.080;11.682;2023-03-23T10:48:41;1.80;;;1.70;;
38023;SDS011;23834;48.080;11.682;2023-03-23T10:51:09;2.30;;;1.70;;
38023;SDS011;23834;48.080;11.682;2023-03-23T10:53:37;1.83;;;1.57;;
38023;SDS011;23834;48.080;11.682;2023-03-23T10:56:03;1.53;;;1.43;;
38023;SDS011;23834;48.080;11.682;2023-03-23T10:58:33;2.40;;;1.50;;
38023;SDS011;23834;48.080;11.682;2023-03-23T11:00:59;2.20;;;1.80;;
38023;SDS011;23834;48.080;11.682;2023-03-23T11:05:58;1.60;;;1.50;;
38023;SDS011;23834;48.080;11.682;2023-03-23T11:08:25;2.53;;;1.60;;
38023;SDS011;23834;48.080;11.682;2023-03-23T11:13:38;1.80;;;1.70;;
38023;SDS011;23834;48.080;11.682;2023-03-23T11:16:04;1.47;;;1.37;;
38023;SDS011;23834;48.080;11.682;2023-03-23T11:18:36;2.00;;;1.80;;
38023;SDS011;23834;48.080;11.682;2023-03-23T11:21:02;1.43;;;1.33;;
38023;SDS011;23834;48.080;11.682;2023-03-23T11:23:29;1.93;;;1.80;;
38023;SDS011;23834;48.080;11.682;2023-03-23T11:25:59;2.10;;;1.30;;
38023;SDS011;23834;48.080;11.682;2023-03-23T11:28:29;1.70;;;1.60;;
38023;SDS011;23834;48.080;11.682;2023-03-23T11:30:56;1.43;;;1.30;;
38023;SDS011;23834;48.080;11.682;2023-03-23T11:33:21;1.50;;;1.40;;
38023;SDS011;23834;48.080;11.682;2023-03-23T11:35:49;1.50;;;1.37;;
38023;SDS011;23834;48.080;11.682;2023-03-23T11:38:17;1.50;;;1.40;;
38023;SDS011;23834;48.080;11.682;2023-03-23T11:40:44;1.70;;;1.60;;
38023;SDS011;23834;48.080;11.682;2023-03-23T11:43:18;1.50;;;1.40;;
38023;SDS011;23834;48.080;11.682;2023-03-23T11:48:42;1.70;;;1.60;;
38023;SDS011;23834;48.080;11.682;2023-03-23T11:56:27;1.27;;;1.20;;
38023;SDS011;23834;48.080;11.682;2023-03-23T11:58:54;1.50;;;1.40;;
38023;SDS011;23834;48.080;11.682;2023-03-23T12:06:38;1.33;;;1.23;;
38023;SDS011;23834;48.080;11.682;2023-03-23T12:11:45;1.50;;;1.40;;
38023;SDS011;23834;48.080;11.682;2023-03-23T12:14:21;1.53;;;1.43;;
38023;SDS011;23834;48.080;11.682;2023-03-23T12:16:50;1.87;;;1.77;;
38023;SDS011;23834;48.080;11.682;2023-03-23T12:19:27;1.57;;;1.47;;
38023;SDS011;23834;48.080;11.682;2023-03-23T12:30:14;1.53;;;1.43;;
38023;SDS011;23834;48.080;11.682;2023-03-23T12:37:59;1.70;;;1.60;;
38023;SDS011;23834;48.080;11.682;2023-03-23T12:40:35;1.83;;;1.73;;
38023;SDS011;23834;48.080;11.682;2023-03-23T12:43:05;1.50;;;1.40;;
38023;SDS011;23834;48.080;11.682;2023-03-23T12:48:12;1.50;;;1.40;;
38023;SDS011;23834;48.080;11.682;2023-03-23T12:53:11;1.83;;;1.50;;
38023;SDS011;23834;48.080;11.682;2023-03-23T12:58:14;1.60;;;1.50;;
38023;SDS011;23834;48.080;11.682;2023-03-23T13:00:52;1.73;;;1.17;;
38023;SDS011;23834;48.080;11.682;2023-03-23T13:03:27;1.43;;;1.20;;
38023;SDS011;23834;48.080;11.682;2023-03-23T13:08:39;1.40;;;1.30;;
38023;SDS011;23834;48.080;11.682;2023-03-23T13:11:20;1.60;;;1.50;;
38023;SDS011;23834;48.080;11.682;2023-03-23T13:13:59;2.00;;;1.40;;
38023;SDS011;23834;48.080;11.682;2023-03-23T13:21:29;1.30;;;1.20;;
38023;SDS011;23834;48.080;11.682;2023-03-23T13:23:58;2.50;;;1.60;;
38023;SDS011;23834;48.080;11.682;2023-03-23T13:26:24;1.60;;;1.50;;
38023;SDS011;23834;48.080;11.682;2023-03-23T13:31:17;1.73;;;1.63;;
38023;SDS011;23834;48.080;11.682;2023-03-23T13:33:45;2.23;;;1.80;;
38023;SDS011;23834;48.080;11.682;2023-03-23T13:36:12;1.57;;;1.43;;
38023;SDS011;23834;48.080;11.682;2023-03-23T13:38:38;1.40;;;1.30;;
38023;SDS011;23834;48.080;11.682;2023-03-23T13:41:22;1.60;;;1.50;;
38023;SDS011;23834;48.080;11.682;2023-03-23T13:43:47;1.23;;;1.13;;
38023;SDS011;23834;48.080;11.682;2023-03-23T13:48:48;1.90;;;1.70;;
38023;SDS011;23834;48.080;11.682;2023-03-23T13:51:24;1.30;;;1.20;;
38023;SDS011;23834;48.080;11.682;2023-03-23T13:53:49;1.40;;;1.30;;
38023;SDS011;23834;48.080;11.682;2023-03-23T13:56:18;1.50;;;1.40;;
38023;SDS011;23834;48.080;11.682;2023-03-23T13:58:51;1.73;;;1.63;;
38023;SDS011;23834;48.080;11.682;2023-03-23T14:01:30;2.33;;;1.60;;
38023;SDS011;23834;48.080;11.682;2023-03-23T14:03:58;1.80;;;1.63;;
38023;SDS011;23834;48.080;11.682;2023-03-23T14:06:25;1.57;;;1.47;;
38023;SDS011;23834;48.080;11.682;2023-03-23T14:08:53;1.87;;;1.77;;
38023;SDS011;23834;48.080;11.682;2023-03-23T14:11:22;1.70;;;1.60;;
38023;SDS011;23834;48.080;11.682;2023-03-23T14:13:58;1.47;;;1.37;;
38023;SDS011;23834;48.080;11.682;2023-03-23T14:16:41;1.63;;;1.53;;
38023;SDS011;23834;48.080;11.682;2023-03-23T14:19:40;1.63;;;1.47;;
38023;SDS011;23834;48.080;11.682;2023-03-23T14:21:59;1.70;;;1.60;;
38023;SDS011;23834;48.080;11.682;2023-03-23T14:24:32;1.50;;;1.40;;
38023;SDS011;23834;48.080;11.682;2023-03-23T14:29:30;1.53;;;1.43;;
38023;SDS011;23834;48.080;11.682;2023-03-23T14:31:55;1.70;;;1.57;;
38023;SDS011;23834;48.080;11.682;2023-03-23T14:34:24;1.60;;;1.50;;
38023;SDS011;23834;48.080;11.682;2023-03-23T14:36:50;1.70;;;1.60;;
38023;SDS011;23834;48.080;11.682;2023-03-23T14:41:41;1.42;;;1.33;;
38023;SDS011;23834;48.080;11.682;2023-03-23T14:44:08;1.63;;;1.50;;
38023;SDS011;23834;48.080;11.682;2023-03-23T14:46:37;1.83;;;1.73;;
38023;SDS011;23834;48.080;11.682;2023-03-23T14:49:03;1.87;;;1.70;;
38023;SDS011;23834;48.080;11.682;2023-03-23T14:51:28;1.60;;;1.50;;
38023;SDS011;23834;48.080;11.682;2023-03-23T14:53:54;2.10;;;1.50;;
38023;SDS011;23834;48.080;11.682;2023-03-23T14:56:20;1.90;;;1.80;;
38023;SDS011;23834;48.080;11.682;2023-03-23T14:58:48;2.23;;;2.03;;
38023;SDS011;23834;48.080;11.682;2023-03-23T15:01:16;1.70;;;1.60;;
38023;SDS011;23834;48.080;11.682;2023-03-23T15:03:47;1.87;;;1.77;;
38023;SDS011;23834;48.080;11.682;2023-03-23T15:06:15;2.83;;;2.23;;
38023;SDS011;23834;48.080;11.682;2023-03-23T15:08:42;2.00;;;1.90;;
38023;SDS011;23834;48.080;11.682;2023-03-23T15:13:46;1.63;;;1.53;;
38023;SDS011;23834;48.080;11.682;2023-03-23T15:16:18;1.67;;;1.57;;
38023;SDS011;23834;48.080;11.682;2023-03-23T15:23:53;1.50;;;1.40;;
38023;SDS011;23834;48.080;11.682;2023-03-23T15:26:24;1.73;;;1.60;;
38023;SDS011;23834;48.080;11.682;2023-03-23T15:28:49;2.67;;;1.80;;
38023;SDS011;23834;48.080;11.682;2023-03-23T15:31:16;1.30;;;1.20;;
38023;SDS011;23834;48.080;11.682;2023-03-23T15:33:41;2.23;;;1.43;;
38023;SDS011;23834;48.080;11.682;2023-03-23T15:36:16;1.70;;;1.60;;
38023;SDS011;23834;48.080;11.682;2023-03-23T15:38:45;2.23;;;1.60;;
38023;SDS011;23834;48.080;11.682;2023-03-23T15:41:24;1.90;;;1.70;;
38023;SDS011;23834;48.080;11.682;2023-03-23T15:43:55;1.77;;;1.37;;
38023;SDS011;23834;48.080;11.682;2023-03-23T15:46:23;1.73;;;1.63;;
38023;SDS011;23834;48.080;11.682;2023-03-23T15:48:50;2.43;;;1.90;;
38023;SDS011;23834;48.080;11.682;2023-03-23T15:51:19;1.67;;;1.40;;
38023;SDS011;23834;48.080;11.682;2023-03-23T15:53:46;1.50;;;1.40;;
38023;SDS011;23834;48.080;11.682;2023-03-23T15:56:12;1.73;;;1.13;;
38023;SDS011;23834;48.080;11.682;2023-03-23T15:58:37;1.20;;;1.20;;
38023;SDS011;23834;48.080;11.682;2023-03-23T16:01:07;1.50;;;1.40;;